»·PEaware :: AAL6295 KLAS-KPHX

AAL6295 :: KLAS-KPHX

FLIGHT INFORMATION

Flight Status: Arrived
Operator:
American Airlines
More flights by this operator :: More flights under this callsign
Pilot: Antonio A. (14008)
Aircraft: CANADAIR CL-600 CRJ-700
(CRJ7)
More flights by this aircraft type
Origin: KLAS McCarran Intl
United States
Destination: KPHX Phoenix Sky Harbor Intl
United States
More flights between these airports :: More routes between these airports
Route: +PRFUM4 PRFUM WOTRO BRUSR1
File this flight plan on PilotEdge
Remarks:
Altitude:
(Current/Filed)
25,000ft
Speed:
(Current/Filed)
330kts
Departed: 19-Sep-17 07:18 PM
Arrived: 19-Sep-17 08:11 PM
Distance/Time
Traveled:
221nm/0:53
Distance/Time
To Go:
Arrived

Flight Plot

Page will automatically refresh every two minutes.

Flight plan parsing failed; only flown route is shown


Map Options




Map Legend


Flown Route
Filed Route
Departure Airport
Arrival Airport
Navaid (VOR, NDB)
Fix

Horizontal Profiles

Position Reports

Time Latitude Longitude Heading Altitude Ground
Speed
19-Sep-17 19:06 36.079859 -115.145918 323 2188ft 0kts
19-Sep-17 19:07 36.079859 -115.145918 323 2188ft 0kts
19-Sep-17 19:08 36.079859 -115.145918 323 2188ft 0kts
19-Sep-17 19:09 36.079859 -115.145918 323 2188ft 0kts
19-Sep-17 19:10 36.079859 -115.145917 323 2188ft 0kts
19-Sep-17 19:11 36.079323 -115.145433 323 2188ft 0kts
19-Sep-17 19:12 36.079323 -115.145433 323 2188ft 0kts
19-Sep-17 19:13 36.079326 -115.145436 323 2188ft 0kts
19-Sep-17 19:14 36.079329 -115.145438 323 2188ft 0kts
19-Sep-17 19:15 36.079331 -115.145441 323 2188ft 0kts
19-Sep-17 19:16 36.079334 -115.145443 323 2188ft 0kts
19-Sep-17 19:17 36.079647 -115.145419 45 2188ft 14kts
19-Sep-17 19:18 36.078272 -115.141719 91 2188ft 18kts
19-Sep-17 19:19 36.078248 -115.133328 89 2188ft 30kts
19-Sep-17 19:20 36.078228 -115.126248 89 2188ft 20kts
19-Sep-17 19:21 36.077129 -115.121308 180 2188ft 0kts
19-Sep-17 19:22 36.076298 -115.123267 268 2188ft 41kts
19-Sep-17 19:23 36.076586 -115.182028 267 3157ft 227kts
19-Sep-17 19:24 36.069010 -115.254453 230 4832ft 236kts
19-Sep-17 19:25 36.012757 -115.304476 211 6527ft 258kts
19-Sep-17 19:26 35.942937 -115.326936 180 7925ft 276kts
19-Sep-17 19:27 35.866958 -115.314438 165 8097ft 274kts
19-Sep-17 19:28 35.832168 -115.230802 99 9787ft 301kts
19-Sep-17 19:29 35.825196 -115.125554 95 10965ft 320kts
19-Sep-17 19:30 35.827180 -115.010326 86 12511ft 350kts
19-Sep-17 19:31 35.835317 -114.888422 85 14174ft 364kts
19-Sep-17 19:32 35.843958 -114.761941 84 15841ft 375kts
19-Sep-17 19:33 35.852955 -114.631890 93 17498ft 386kts
19-Sep-17 19:34 35.811899 -114.508738 123 19181ft 403kts
19-Sep-17 19:35 35.747034 -114.392928 128 20846ft 421kts
19-Sep-17 19:36 35.679698 -114.271123 125 22520ft 436kts
19-Sep-17 19:37 35.611598 -114.144737 125 24184ft 449kts
19-Sep-17 19:38 35.540774 -114.012763 125 24974ft 482kts
19-Sep-17 19:39 35.464929 -113.871826 125 24999ft 501kts
19-Sep-17 19:40 35.387804 -113.728708 125 25003ft 505kts
19-Sep-17 19:41 35.310369 -113.585293 125 24993ft 505kts
19-Sep-17 19:42 35.232476 -113.441432 125 24993ft 506kts
19-Sep-17 19:43 35.154724 -113.298318 125 24980ft 506kts
19-Sep-17 19:44 35.076520 -113.154986 125 24965ft 505kts
19-Sep-17 19:45 34.998496 -113.012683 125 24966ft 505kts
19-Sep-17 19:46 34.919998 -112.870172 125 24953ft 505kts
19-Sep-17 19:47 34.841826 -112.728917 125 24954ft 505kts
19-Sep-17 19:48 34.763971 -112.588720 125 24533ft 471kts
19-Sep-17 19:49 34.694612 -112.471409 136 23675ft 402kts
19-Sep-17 19:50 34.608619 -112.383593 145 22998ft 403kts
19-Sep-17 19:51 34.520019 -112.301123 145 21550ft 401kts
19-Sep-17 19:52 34.445767 -112.238307 159 20035ft 369kts
19-Sep-17 19:53 34.351854 -112.204632 171 18237ft 341kts
19-Sep-17 19:54 34.260961 -112.181609 172 16436ft 327kts
19-Sep-17 19:55 34.173414 -112.159473 172 14641ft 316kts
19-Sep-17 19:56 34.088676 -112.135672 168 12835ft 307kts
19-Sep-17 19:57 33.995503 -112.100069 166 11034ft 289kts
19-Sep-17 19:58 33.940523 -112.077800 166 10696ft 291kts
19-Sep-17 19:59 33.868886 -112.048722 166 9113ft 275kts
19-Sep-17 20:00 33.802518 -112.021628 166 8384ft 242kts
19-Sep-17 20:01 33.741627 -111.997094 166 7835ft 218kts
19-Sep-17 20:02 33.682526 -111.973362 165 7820ft 240kts
19-Sep-17 20:03 33.616066 -111.946556 164 6973ft 256kts
19-Sep-17 20:04 33.553433 -111.921091 165 6793ft 227kts
19-Sep-17 20:05 33.520697 -111.857436 107 6800ft 247kts
19-Sep-17 20:06 33.520733 -111.771600 89 5719ft 266kts
19-Sep-17 20:07 33.523275 -111.685414 99 4984ft 240kts
19-Sep-17 20:08 33.476854 -111.675913 225 5012ft 216kts
19-Sep-17 20:09 33.444401 -111.734163 255 5012ft 201kts
19-Sep-17 20:10 33.440521 -111.796626 267 4495ft 168kts
19-Sep-17 20:11 33.440888 -111.846676 266 3318ft 132kts
19-Sep-17 20:12 33.440882 -111.889991 264 2571ft 135kts
19-Sep-17 20:13 33.440553 -111.936491 268 1828ft 141kts
19-Sep-17 20:14 33.440564 -111.983681 269 1540ft 150kts
19-Sep-17 20:15 33.440657 -112.026729 268 1141ft 11kts
19-Sep-17 20:16 33.440380 -112.029490 207 1141ft 5kts

Navigation Log

Ident Type
Flight plan parsing failed, navigation log unavailable